Terminal Aerodrome Forecast
Issued by NWS

Home | Current Version | Previous Version | Graphics & Text | Print | Product List | Glossary Off
Versions: 1 2 3 4 5 6 7 8 9 10 11 12 13 14 15

000
FTUS43 KICT 301700
TAFRSL
TAF
KRSL 301727Z 3018/3118 13005KT P6SM SKC
     FM302200 17011KT P6SM SCT250
     FM311100 19012KT P6SM VCTS SCT080CB BKN200=

USA.gov is the U.S. government's official web portal to all federal, state and local government web resources and services.